Time,TemperatureF,DewpointF,PressureIn,WindDirection,WindDirectionDegrees,WindSpeedMPH,WindSpeedGustMPH,Humidity,HourlyPrecipIn,Conditions,Clouds,dailyrainin,SoftwareType,DateUTC
2013-01-30 00:05:00,34.7,31.0,29.86,South,180,2.0,0.0,86,0.00,,,0.00,Rainwise IP-100,2013-01-30 05:05:00,
2013-01-30 00:40:00,34.9,31.0,29.86,ESE,112,1.0,0.0,86,0.00,,,0.00,Rainwise IP-100,2013-01-30 05:40:00,
2013-01-30 00:44:00,34.9,31.0,29.86,ESE,112,1.0,1.0,86,0.00,,,0.00,Rainwise IP-100,2013-01-30 05:44:00,
2013-01-30 00:47:00,35.3,31.0,29.86,ESE,112,3.0,3.0,86,0.00,,,0.00,Rainwise IP-100,2013-01-30 05:47:00,
2013-01-30 00:56:00,35.8,32.0,29.86,ESE,112,4.0,0.0,87,0.00,,,0.00,Rainwise IP-100,2013-01-30 05:56:00,
2013-01-30 01:01:00,35.9,32.0,29.86,ESE,112,2.0,4.0,86,0.00,,,0.00,Rainwise IP-100,2013-01-30 06:01:00,
2013-01-30 01:07:00,35.9,32.0,29.86,South,180,1.0,2.0,87,0.00,,,0.00,Rainwise IP-100,2013-01-30 06:07:00,
2013-01-30 01:16:00,36.2,32.0,29.85,ESE,112,1.0,0.0,87,0.00,,,0.00,Rainwise IP-100,2013-01-30 06:16:00,
2013-01-30 01:29:00,36.3,32.0,29.85,ESE,112,3.0,0.0,88,0.00,,,0.00,Rainwise IP-100,2013-01-30 06:29:00,
2013-01-30 01:49:00,36.9,33.0,29.83,ESE,112,5.0,0.0,88,0.00,,,0.00,Rainwise IP-100,2013-01-30 06:49:00,
2013-01-30 01:54:00,36.7,35.0,29.83,SW,225,3.0,5.0,90,0.00,,,0.00,Rainwise IP-100,2013-01-30 06:54:00,
2013-01-30 02:38:00,36.8,36.0,29.81,South,180,2.0,0.0,94,0.00,,,0.00,Rainwise IP-100,2013-01-30 07:38:00,
2013-01-30 04:04:00,36.8,36.0,29.81,ESE,112,7.0,7.0,94,0.00,,,0.00,Rainwise IP-100,2013-01-30 09:04:00,
2013-01-30 04:09:00,37.3,36.0,29.78,South,180,2.0,2.0,95,0.18,,,0.03,Rainwise IP-100,2013-01-30 09:09:00,
2013-01-30 04:20:00,37.3,36.0,29.78,South,180,2.0,2.0,95,0.18,,,0.03,Rainwise IP-100,2013-01-30 09:20:00,
2013-01-30 04:25:00,37.5,37.0,29.78,ESE,112,1.0,3.0,95,0.06,,,0.04,Rainwise IP-100,2013-01-30 09:25:00,
2013-01-30 04:40:00,37.9,37.0,29.76,SSW,202,3.0,0.0,95,0.00,,,0.04,Rainwise IP-100,2013-01-30 09:40:00,
2013-01-30 04:45:00,37.9,37.0,29.76,WSW,247,2.0,3.0,95,0.00,,,0.04,Rainwise IP-100,2013-01-30 09:45:00,
2013-01-30 05:11:00,38.3,37.0,29.74,SW,225,2.0,0.0,96,0.12,,,0.07,Rainwise IP-100,2013-01-30 10:11:00,
2013-01-30 05:16:00,38.3,37.0,29.74,SW,225,2.0,2.0,96,0.12,,,0.07,Rainwise IP-100,2013-01-30 10:16:00,
2013-01-30 05:25:00,38.4,37.0,29.74,SE,135,2.0,2.0,96,0.12,,,0.07,Rainwise IP-100,2013-01-30 10:25:00,
2013-01-30 05:33:00,38.4,37.0,29.74,SSW,202,2.0,0.0,96,0.06,,,0.08,Rainwise IP-100,2013-01-30 10:33:00,
2013-01-30 05:40:00,38.4,37.0,29.74,SE,135,3.0,0.0,96,0.00,,,0.08,Rainwise IP-100,2013-01-30 10:40:00,
2013-01-30 05:45:00,38.4,37.0,29.74,ESE,112,1.0,7.0,96,0.00,,,0.08,Rainwise IP-100,2013-01-30 10:45:00,
2013-01-30 05:50:00,38.5,38.0,29.74,SSW,202,2.0,6.0,96,0.00,,,0.09,Rainwise IP-100,2013-01-30 10:50:00,
2013-01-30 05:55:00,38.6,38.0,29.74,SW,225,2.0,13.0,96,0.06,,,0.09,Rainwise IP-100,2013-01-30 10:55:00,
2013-01-30 06:00:00,38.5,38.0,29.74,SSW,202,2.0,7.0,96,0.06,,,0.09,Rainwise IP-100,2013-01-30 11:00:00,
2013-01-30 06:05:00,38.5,38.0,29.74,SE,135,7.0,10.0,96,0.00,,,0.09,Rainwise IP-100,2013-01-30 11:05:00,
2013-01-30 06:10:00,38.5,38.0,29.74,South,180,2.0,10.0,96,0.06,,,0.10,Rainwise IP-100,2013-01-30 11:10:00,
2013-01-30 06:15:00,38.5,38.0,29.74,SSW,202,2.0,8.0,96,0.06,,,0.10,Rainwise IP-100,2013-01-30 11:15:00,
2013-01-30 06:20:00,38.5,38.0,29.73,SE,135,3.0,9.0,96,0.00,,,0.10,Rainwise IP-100,2013-01-30 11:20:00,
2013-01-30 06:31:00,38.7,38.0,29.73,South,180,1.0,6.0,96,0.00,,,0.10,Rainwise IP-100,2013-01-30 11:31:00,
2013-01-30 06:39:00,38.5,38.0,29.72,WNW,292,4.0,0.0,96,0.00,,,0.10,Rainwise IP-100,2013-01-30 11:39:00,
2013-01-30 06:58:00,38.5,38.0,29.71,WSW,247,3.0,0.0,96,0.00,,,0.10,Rainwise IP-100,2013-01-30 11:58:00,
2013-01-30 07:03:00,38.6,38.0,29.71,SSW,202,2.0,6.0,96,0.00,,,0.10,Rainwise IP-100,2013-01-30 12:03:00,
2013-01-30 07:08:00,38.6,38.0,29.72,SE,135,1.0,7.0,96,0.00,,,0.10,Rainwise IP-100,2013-01-30 12:08:00,
2013-01-30 07:13:00,38.8,38.0,29.71,SW,225,2.0,12.0,96,0.00,,,0.10,Rainwise IP-100,2013-01-30 12:13:00,
2013-01-30 07:18:00,38.8,38.0,29.71,SW,225,1.0,4.0,96,0.00,,,0.10,Rainwise IP-100,2013-01-30 12:18:00,
2013-01-30 07:23:00,38.9,38.0,29.71,WSW,247,3.0,7.0,96,0.00,,,0.10,Rainwise IP-100,2013-01-30 12:23:00,
2013-01-30 07:28:00,38.9,38.0,29.70,SE,135,2.0,7.0,96,0.00,,,0.10,Rainwise IP-100,2013-01-30 12:28:00,
2013-01-30 07:37:00,39.1,38.0,29.70,West,270,2.0,0.0,96,0.00,,,0.10,Rainwise IP-100,2013-01-30 12:37:00,
2013-01-30 07:42:00,39.3,38.0,29.70,NW,315,1.0,8.0,96,0.00,,,0.10,Rainwise IP-100,2013-01-30 12:42:00,
2013-01-30 07:47:00,39.2,38.0,29.70,NW,315,1.0,5.0,96,0.00,,,0.10,Rainwise IP-100,2013-01-30 12:47:00,
2013-01-30 07:52:00,39.4,38.0,29.70,SE,135,4.0,9.0,96,0.00,,,0.10,Rainwise IP-100,2013-01-30 12:52:00,
2013-01-30 07:57:00,39.3,38.0,29.70,South,180,2.0,8.0,96,0.00,,,0.10,Rainwise IP-100,2013-01-30 12:57:00,
2013-01-30 08:02:00,39.6,39.0,29.70,WSW,247,3.0,7.0,96,0.00,,,0.10,Rainwise IP-100,2013-01-30 13:02:00,
2013-01-30 08:07:00,39.6,39.0,29.70,SE,135,6.0,11.0,96,0.00,,,0.10,Rainwise IP-100,2013-01-30 13:07:00,
2013-01-30 08:12:00,39.8,39.0,29.68,SSW,202,5.0,9.0,96,0.06,,,0.11,Rainwise IP-100,2013-01-30 13:12:00,
2013-01-30 08:17:00,39.9,39.0,29.69,South,180,2.0,9.0,96,0.06,,,0.11,Rainwise IP-100,2013-01-30 13:17:00,
2013-01-30 08:22:00,39.9,39.0,29.68,WSW,247,1.0,11.0,96,0.00,,,0.11,Rainwise IP-100,2013-01-30 13:22:00,
2013-01-30 08:27:00,39.9,39.0,29.68,West,270,3.0,11.0,96,0.00,,,0.11,Rainwise IP-100,2013-01-30 13:27:00,
2013-01-30 08:32:00,40.1,39.0,29.68,ESE,112,2.0,9.0,96,0.00,,,0.11,Rainwise IP-100,2013-01-30 13:32:00,
2013-01-30 08:37:00,40.2,39.0,29.68,South,180,2.0,9.0,96,0.00,,,0.11,Rainwise IP-100,2013-01-30 13:37:00,
2013-01-30 08:42:00,40.3,39.0,29.67,East,90,2.0,12.0,96,0.00,,,0.11,Rainwise IP-100,2013-01-30 13:42:00,
2013-01-30 08:47:00,40.5,40.0,29.67,WSW,247,3.0,14.0,96,0.00,,,0.11,Rainwise IP-100,2013-01-30 13:47:00,
2013-01-30 08:52:00,40.6,40.0,29.67,WSW,247,2.0,12.0,96,0.00,,,0.11,Rainwise IP-100,2013-01-30 13:52:00,
2013-01-30 08:57:00,40.7,40.0,29.67,South,180,9.0,14.0,96,0.00,,,0.11,Rainwise IP-100,2013-01-30 13:57:00,
2013-01-30 09:02:00,40.8,40.0,29.67,SSW,202,2.0,15.0,96,0.00,,,0.11,Rainwise IP-100,2013-01-30 14:02:00,
2013-01-30 09:07:00,40.8,40.0,29.66,South,180,4.0,11.0,96,0.00,,,0.11,Rainwise IP-100,2013-01-30 14:07:00,
2013-01-30 09:12:00,40.9,40.0,29.66,SSW,202,6.0,16.0,96,0.00,,,0.11,Rainwise IP-100,2013-01-30 14:12:00,
2013-01-30 09:17:00,41.0,40.0,29.66,SSE,157,2.0,16.0,96,0.06,,,0.12,Rainwise IP-100,2013-01-30 14:17:00,
2013-01-30 09:22:00,41.1,40.0,29.66,SE,135,3.0,16.0,96,0.06,,,0.12,Rainwise IP-100,2013-01-30 14:22:00,
2013-01-30 09:27:00,41.1,40.0,29.65,East,90,1.0,7.0,96,0.00,,,0.12,Rainwise IP-100,2013-01-30 14:27:00,
2013-01-30 09:32:00,41.2,40.0,29.66,SE,135,4.0,12.0,96,0.00,,,0.12,Rainwise IP-100,2013-01-30 14:32:00,
2013-01-30 09:37:00,41.2,40.0,29.65,ESE,112,7.0,13.0,96,0.00,,,0.12,Rainwise IP-100,2013-01-30 14:37:00,
2013-01-30 09:42:00,41.2,40.0,29.65,SE,135,2.0,11.0,96,0.00,,,0.12,Rainwise IP-100,2013-01-30 14:42:00,
2013-01-30 09:47:00,41.3,40.0,29.65,ESE,112,4.0,12.0,96,0.00,,,0.12,Rainwise IP-100,2013-01-30 14:47:00,
2013-01-30 09:52:00,41.3,40.0,29.65,SSE,157,8.0,8.0,96,0.00,,,0.12,Rainwise IP-100,2013-01-30 14:52:00,
2013-01-30 09:57:00,41.3,40.0,29.64,SSE,157,1.0,12.0,96,0.00,,,0.12,Rainwise IP-100,2013-01-30 14:57:00,
2013-01-30 10:02:00,41.3,40.0,29.64,SSW,202,1.0,11.0,96,0.00,,,0.12,Rainwise IP-100,2013-01-30 15:02:00,
2013-01-30 10:07:00,41.4,40.0,29.63,SSE,157,8.0,14.0,96,0.00,,,0.12,Rainwise IP-100,2013-01-30 15:07:00,
2013-01-30 10:12:00,41.4,40.0,29.62,SSE,157,7.0,12.0,96,0.06,,,0.13,Rainwise IP-100,2013-01-30 15:12:00,
2013-01-30 10:17:00,41.4,40.0,29.62,WSW,247,2.0,12.0,96,0.06,,,0.13,Rainwise IP-100,2013-01-30 15:17:00,
2013-01-30 10:22:00,41.4,40.0,29.61,SSE,157,2.0,12.0,96,0.00,,,0.13,Rainwise IP-100,2013-01-30 15:22:00,
2013-01-30 10:27:00,41.6,41.0,29.61,South,180,5.0,16.0,96,0.00,,,0.13,Rainwise IP-100,2013-01-30 15:27:00,
2013-01-30 10:32:00,41.9,41.0,29.61,SSW,202,4.0,18.0,96,0.00,,,0.13,Rainwise IP-100,2013-01-30 15:32:00,
2013-01-30 10:37:00,42.1,41.0,29.60,ESE,112,4.0,12.0,96,0.00,,,0.13,Rainwise IP-100,2013-01-30 15:37:00,
2013-01-30 10:42:00,42.1,41.0,29.59,ESE,112,6.0,15.0,96,0.00,,,0.13,Rainwise IP-100,2013-01-30 15:42:00,
2013-01-30 10:47:00,42.2,41.0,29.58,South,180,6.0,11.0,96,0.00,,,0.13,Rainwise IP-100,2013-01-30 15:47:00,
2013-01-30 10:52:00,42.4,41.0,29.58,ESE,112,6.0,19.0,96,0.00,,,0.13,Rainwise IP-100,2013-01-30 15:52:00,
2013-01-30 11:05:00,42.5,42.0,29.57,SE,135,6.0,0.0,96,0.00,,,0.13,Rainwise IP-100,2013-01-30 16:05:00,
2013-01-30 11:15:00,42.5,42.0,29.57,SE,135,6.0,6.0,96,0.00,,,0.13,Rainwise IP-100,2013-01-30 16:15:00,
2013-01-30 11:23:00,43.1,42.0,29.56,South,180,4.0,0.0,96,0.00,,,0.13,Rainwise IP-100,2013-01-30 16:23:00,
2013-01-30 11:28:00,43.2,42.0,29.56,South,180,11.0,11.0,96,0.00,,,0.13,Rainwise IP-100,2013-01-30 16:28:00,
2013-01-30 12:05:00,43.9,43.0,29.52,SSE,157,9.0,0.0,96,0.00,,,0.13,Rainwise IP-100,2013-01-30 17:05:00,
2013-01-30 12:54:00,44.4,43.0,29.48,NNW,337,2.0,0.0,96,0.00,,,0.13,Rainwise IP-100,2013-01-30 17:54:00,
2013-01-30 14:15:00,47.2,46.0,29.44,WSW,247,4.0,0.0,97,0.00,,,0.13,Rainwise IP-100,2013-01-30 19:15:00,
2013-01-30 14:27:00,47.5,47.0,29.44,SSW,202,4.0,0.0,97,0.00,,,0.13,Rainwise IP-100,2013-01-30 19:27:00,
2013-01-30 15:32:00,47.5,47.0,29.44,SSW,202,4.0,4.0,97,0.00,,,0.13,Rainwise IP-100,2013-01-30 20:32:00,
2013-01-30 15:37:00,47.9,47.5,29.40,SSW,202,2.0,3.0,97,0.00,,,0.13,Rainwise IP-100,2013-01-30 20:37:00,
2013-01-30 15:42:00,47.9,47.5,29.40,SW,225,4.0,9.0,97,0.00,,,0.13,Rainwise IP-100,2013-01-30 20:42:00,
2013-01-30 15:47:00,48.1,47.5,29.39,SSE,157,5.0,9.0,97,0.00,,,0.13,Rainwise IP-100,2013-01-30 20:47:00,
2013-01-30 15:52:00,48.1,47.5,29.38,SSW,202,2.0,5.0,97,0.00,,,0.13,Rainwise IP-100,2013-01-30 20:52:00,
2013-01-30 15:58:00,47.9,47.5,29.38,SSW,202,2.0,0.0,97,0.00,,,0.13,Rainwise IP-100,2013-01-30 20:58:00,
2013-01-30 16:03:00,48.2,47.5,29.37,SW,225,5.0,5.0,97,0.00,,,0.13,Rainwise IP-100,2013-01-30 21:03:00,
2013-01-30 16:10:00,48.1,47.5,29.37,South,180,1.0,8.0,97,0.00,,,0.13,Rainwise IP-100,2013-01-30 21:10:00,
2013-01-30 16:15:00,48.1,47.5,29.37,SSE,157,3.0,9.0,97,0.00,,,0.13,Rainwise IP-100,2013-01-30 21:15:00,
2013-01-30 16:23:00,48.5,48.0,29.36,WSW,247,2.0,0.0,97,0.00,,,0.13,Rainwise IP-100,2013-01-30 21:23:00,
2013-01-30 16:39:00,49.0,48.0,29.36,WSW,247,1.0,0.0,97,0.00,,,0.13,Rainwise IP-100,2013-01-30 21:39:00,
2013-01-30 16:44:00,49.1,48.0,29.36,SSW,202,11.0,11.0,97,0.00,,,0.13,Rainwise IP-100,2013-01-30 21:44:00,
2013-01-30 16:49:00,49.1,48.0,29.36,South,180,6.0,9.0,97,0.00,,,0.13,Rainwise IP-100,2013-01-30 21:49:00,
2013-01-30 16:54:00,49.1,48.0,29.35,ESE,112,2.0,9.0,97,0.00,,,0.13,Rainwise IP-100,2013-01-30 21:54:00,
2013-01-30 16:59:00,49.1,48.0,29.35,SSE,157,6.0,14.0,97,0.00,,,0.13,Rainwise IP-100,2013-01-30 21:59:00,
2013-01-30 17:04:00,49.3,48.0,29.35,South,180,11.0,11.0,97,0.00,,,0.13,Rainwise IP-100,2013-01-30 22:04:00,
2013-01-30 17:09:00,49.3,48.0,29.35,SSW,202,4.0,11.0,97,0.00,,,0.13,Rainwise IP-100,2013-01-30 22:09:00,
2013-01-30 17:15:00,49.3,48.0,29.34,SSE,157,5.0,15.0,97,0.00,,,0.13,Rainwise IP-100,2013-01-30 22:15:00,
2013-01-30 17:20:00,49.4,48.0,29.35,SSE,157,7.0,7.0,97,0.00,,,0.13,Rainwise IP-100,2013-01-30 22:20:00,
2013-01-30 17:25:00,49.6,49.0,29.35,SW,225,11.0,11.0,97,0.00,,,0.13,Rainwise IP-100,2013-01-30 22:25:00,
2013-01-30 17:33:00,49.9,49.0,29.35,SSW,202,6.0,0.0,97,0.00,,,0.13,Rainwise IP-100,2013-01-30 22:33:00,
2013-01-30 17:38:00,50.2,49.0,29.35,SSE,157,16.0,16.0,97,0.00,,,0.13,Rainwise IP-100,2013-01-30 22:38:00,
2013-01-30 17:43:00,50.2,49.0,29.36,SW,225,11.0,11.0,97,0.00,,,0.13,Rainwise IP-100,2013-01-30 22:43:00,
2013-01-30 17:48:00,50.4,50.0,29.35,SSE,157,13.0,16.0,97,0.00,,,0.13,Rainwise IP-100,2013-01-30 22:48:00,
2013-01-30 17:53:00,50.3,50.0,29.35,SSW,202,12.0,12.0,97,0.00,,,0.13,Rainwise IP-100,2013-01-30 22:53:00,
2013-01-30 17:58:00,50.4,50.0,29.35,SSW,202,17.0,17.0,97,0.00,,,0.13,Rainwise IP-100,2013-01-30 22:58:00,
2013-01-30 18:03:00,50.4,50.0,29.35,SW,225,3.0,23.0,97,0.00,,,0.13,Rainwise IP-100,2013-01-30 23:03:00,
2013-01-30 18:08:00,50.3,50.0,29.35,South,180,14.0,14.0,97,0.00,,,0.13,Rainwise IP-100,2013-01-30 23:08:00,
2013-01-30 18:13:00,50.2,49.0,29.35,SSW,202,16.0,16.0,97,0.00,,,0.13,Rainwise IP-100,2013-01-30 23:13:00,
2013-01-30 18:18:00,50.3,50.0,29.36,ESE,112,6.0,16.0,97,0.00,,,0.13,Rainwise IP-100,2013-01-30 23:18:00,
2013-01-30 18:23:00,50.0,49.0,29.36,SSW,202,5.0,20.0,97,0.00,,,0.13,Rainwise IP-100,2013-01-30 23:23:00,
2013-01-30 18:28:00,49.9,49.0,29.36,West,270,11.0,18.0,97,0.00,,,0.13,Rainwise IP-100,2013-01-30 23:28:00,
2013-01-30 18:33:00,49.9,49.0,29.35,SSW,202,11.0,27.0,97,0.00,,,0.13,Rainwise IP-100,2013-01-30 23:33:00,
2013-01-30 18:38:00,49.9,49.0,29.35,West,270,8.0,17.0,97,0.00,,,0.13,Rainwise IP-100,2013-01-30 23:38:00,
2013-01-30 18:43:00,50.0,49.0,29.35,WNW,292,2.0,17.0,97,0.00,,,0.13,Rainwise IP-100,2013-01-30 23:43:00,
2013-01-30 18:48:00,49.9,49.0,29.35,SW,225,12.0,20.0,97,0.00,,,0.13,Rainwise IP-100,2013-01-30 23:48:00,
2013-01-30 18:53:00,49.9,49.0,29.34,South,180,5.0,17.0,97,0.00,,,0.13,Rainwise IP-100,2013-01-30 23:53:00,
2013-01-30 18:58:00,49.8,49.0,29.34,SSW,202,5.0,21.0,97,0.06,,,0.14,Rainwise IP-100,2013-01-30 23:58:00,
2013-01-30 19:03:00,49.7,49.0,29.33,SSW,202,6.0,17.0,97,0.06,,,0.14,Rainwise IP-100,2013-01-31 00:03:00,
2013-01-30 19:08:00,49.7,49.0,29.34,SSW,202,4.0,18.0,97,0.00,,,0.14,Rainwise IP-100,2013-01-31 00:08:00,
2013-01-30 19:13:00,49.6,49.0,29.34,ESE,112,2.0,20.0,97,0.00,,,0.14,Rainwise IP-100,2013-01-31 00:13:00,
2013-01-30 19:18:00,49.6,49.0,29.33,SW,225,9.0,12.0,97,0.00,,,0.14,Rainwise IP-100,2013-01-31 00:18:00,
2013-01-30 19:23:00,49.6,49.0,29.34,SE,135,9.0,17.0,97,0.00,,,0.14,Rainwise IP-100,2013-01-31 00:23:00,
2013-01-30 19:28:00,49.7,49.0,29.33,ESE,112,5.0,17.0,97,0.00,,,0.14,Rainwise IP-100,2013-01-31 00:28:00,
2013-01-30 19:33:00,49.5,49.0,29.33,South,180,2.0,19.0,97,0.00,,,0.14,Rainwise IP-100,2013-01-31 00:33:00,
2013-01-30 19:38:00,49.6,49.0,29.33,SSW,202,1.0,17.0,97,0.00,,,0.14,Rainwise IP-100,2013-01-31 00:38:00,
2013-01-30 19:43:00,49.4,48.0,29.33,North,360,2.0,8.0,97,0.00,,,0.14,Rainwise IP-100,2013-01-31 00:43:00,
2013-01-30 19:48:00,49.5,49.0,29.33,South,180,2.0,16.0,97,0.00,,,0.14,Rainwise IP-100,2013-01-31 00:48:00,
2013-01-30 19:53:00,49.5,49.0,29.33,SSW,202,3.0,17.0,97,0.00,,,0.14,Rainwise IP-100,2013-01-31 00:53:00,
2013-01-30 19:58:00,49.4,48.0,29.33,SSW,202,9.0,16.0,97,0.00,,,0.14,Rainwise IP-100,2013-01-31 00:58:00,
2013-01-30 20:03:00,49.2,48.0,29.33,WSW,247,6.0,17.0,97,0.00,,,0.14,Rainwise IP-100,2013-01-31 01:03:00,
2013-01-30 20:08:00,49.3,48.0,29.33,SSW,202,7.0,9.0,97,0.00,,,0.14,Rainwise IP-100,2013-01-31 01:08:00,
2013-01-30 20:13:00,49.2,48.0,29.32,West,270,4.0,12.0,97,0.00,,,0.14,Rainwise IP-100,2013-01-31 01:13:00,
2013-01-30 20:18:00,49.3,48.0,29.32,SE,135,7.0,12.0,97,0.00,,,0.14,Rainwise IP-100,2013-01-31 01:18:00,
2013-01-30 20:23:00,49.4,48.0,29.31,SW,225,8.0,21.0,97,0.00,,,0.14,Rainwise IP-100,2013-01-31 01:23:00,
2013-01-30 20:28:00,49.4,48.0,29.32,North,360,2.0,12.0,97,0.00,,,0.14,Rainwise IP-100,2013-01-31 01:28:00,
2013-01-30 20:33:00,49.6,49.0,29.31,ESE,112,3.0,16.0,97,0.06,,,0.15,Rainwise IP-100,2013-01-31 01:33:00,
2013-01-30 20:38:00,49.5,49.0,29.31,WSW,247,4.0,12.0,97,0.06,,,0.15,Rainwise IP-100,2013-01-31 01:38:00,
2013-01-30 20:43:00,49.7,49.0,29.31,West,270,2.0,16.0,97,0.00,,,0.15,Rainwise IP-100,2013-01-31 01:43:00,
2013-01-30 20:48:00,49.7,49.0,29.31,SSE,157,4.0,14.0,97,0.00,,,0.15,Rainwise IP-100,2013-01-31 01:48:00,
2013-01-30 20:53:00,49.7,49.0,29.31,SSW,202,7.0,7.0,97,0.24,,,0.19,Rainwise IP-100,2013-01-31 01:53:00,
2013-01-30 20:58:00,49.7,49.0,29.30,SSE,157,4.0,11.0,97,0.24,,,0.19,Rainwise IP-100,2013-01-31 01:58:00,
2013-01-30 21:03:00,49.8,49.0,29.31,SW,225,7.0,7.0,97,0.00,,,0.19,Rainwise IP-100,2013-01-31 02:03:00,
2013-01-30 21:08:00,49.7,49.0,29.31,SSW,202,6.0,8.0,97,0.00,,,0.19,Rainwise IP-100,2013-01-31 02:08:00,
2013-01-30 21:13:00,49.6,49.0,29.30,SSW,202,10.0,12.0,97,0.00,,,0.19,Rainwise IP-100,2013-01-31 02:13:00,
2013-01-30 21:18:00,49.7,49.0,29.29,SE,135,7.0,16.0,97,0.06,,,0.20,Rainwise IP-100,2013-01-31 02:18:00,
2013-01-30 21:28:00,49.3,48.0,29.29,South,180,4.0,0.0,97,0.00,,,0.21,Rainwise IP-100,2013-01-31 02:28:00,
2013-01-30 21:37:00,49.4,48.0,29.28,SW,225,2.0,0.0,97,0.06,,,0.21,Rainwise IP-100,2013-01-31 02:37:00,
2013-01-30 21:42:00,49.5,49.0,29.28,South,180,6.0,6.0,97,0.00,,,0.21,Rainwise IP-100,2013-01-31 02:42:00,
2013-01-30 21:47:00,49.6,49.0,29.27,SSW,202,12.0,12.0,97,0.00,,,0.21,Rainwise IP-100,2013-01-31 02:47:00,
2013-01-30 21:52:00,49.7,49.0,29.27,SSW,202,4.0,14.0,97,0.00,,,0.21,Rainwise IP-100,2013-01-31 02:52:00,
2013-01-30 21:57:00,49.8,49.0,29.27,South,180,5.0,11.0,97,0.00,,,0.21,Rainwise IP-100,2013-01-31 02:57:00,
2013-01-30 22:02:00,49.9,49.0,29.28,ESE,112,20.0,20.0,97,0.00,,,0.21,Rainwise IP-100,2013-01-31 03:02:00,
2013-01-30 22:07:00,49.8,49.0,29.27,West,270,2.0,20.0,97,0.00,,,0.21,Rainwise IP-100,2013-01-31 03:07:00,
2013-01-30 22:12:00,49.7,49.0,29.27,SSE,157,4.0,7.0,97,0.00,,,0.21,Rainwise IP-100,2013-01-31 03:12:00,
2013-01-30 22:17:00,49.6,49.0,29.27,South,180,7.0,12.0,97,0.00,,,0.21,Rainwise IP-100,2013-01-31 03:17:00,
2013-01-30 22:22:00,49.6,49.0,29.27,SSW,202,5.0,14.0,97,0.00,,,0.21,Rainwise IP-100,2013-01-31 03:22:00,
2013-01-30 22:27:00,49.6,49.0,29.26,East,90,2.0,12.0,97,0.00,,,0.21,Rainwise IP-100,2013-01-31 03:27:00,
2013-01-30 22:32:00,49.7,49.0,29.27,West,270,3.0,12.0,97,0.00,,,0.21,Rainwise IP-100,2013-01-31 03:32:00,
2013-01-30 22:37:00,49.8,49.0,29.26,South,180,7.0,7.0,97,0.00,,,0.21,Rainwise IP-100,2013-01-31 03:37:00,
2013-01-30 22:42:00,49.9,49.0,29.26,SSE,157,4.0,9.0,97,0.00,,,0.21,Rainwise IP-100,2013-01-31 03:42:00,
2013-01-30 22:47:00,49.9,49.0,29.26,WSW,247,3.0,12.0,97,0.00,,,0.21,Rainwise IP-100,2013-01-31 03:47:00,
2013-01-30 22:52:00,49.9,49.0,29.27,South,180,4.0,11.0,97,0.00,,,0.21,Rainwise IP-100,2013-01-31 03:52:00,
2013-01-30 22:57:00,49.9,49.0,29.27,SSW,202,4.0,14.0,97,0.00,,,0.21,Rainwise IP-100,2013-01-31 03:57:00,
2013-01-30 23:02:00,49.9,49.0,29.26,South,180,9.0,17.0,97,0.00,,,0.21,Rainwise IP-100,2013-01-31 04:02:00,
2013-01-30 23:07:00,50.0,49.0,29.25,SSW,202,3.0,12.0,97,0.00,,,0.21,Rainwise IP-100,2013-01-31 04:07:00,
2013-01-30 23:12:00,49.9,49.0,29.25,West,270,2.0,9.0,97,0.00,,,0.21,Rainwise IP-100,2013-01-31 04:12:00,
2013-01-30 23:17:00,49.8,49.0,29.25,SW,225,1.0,9.0,97,0.00,,,0.21,Rainwise IP-100,2013-01-31 04:17:00,
2013-01-30 23:22:00,49.8,49.0,29.25,SSW,202,2.0,11.0,97,0.00,,,0.21,Rainwise IP-100,2013-01-31 04:22:00,
2013-01-30 23:27:00,49.8,49.0,29.25,WSW,247,7.0,12.0,97,0.00,,,0.21,Rainwise IP-100,2013-01-31 04:27:00,
2013-01-30 23:32:00,49.9,49.0,29.25,SSE,157,2.0,15.0,97,0.00,,,0.21,Rainwise IP-100,2013-01-31 04:32:00,
2013-01-30 23:37:00,49.9,49.0,29.25,SSW,202,8.0,12.0,97,0.00,,,0.21,Rainwise IP-100,2013-01-31 04:37:00,
2013-01-30 23:42:00,50.2,49.0,29.24,SW,225,2.0,12.0,97,0.00,,,0.21,Rainwise IP-100,2013-01-31 04:42:00,
2013-01-30 23:47:00,50.2,49.0,29.24,South,180,6.0,11.0,97,0.00,,,0.21,Rainwise IP-100,2013-01-31 04:47:00,
2013-01-30 23:52:00,50.3,50.0,29.24,SW,225,7.0,11.0,97,0.00,,,0.21,Rainwise IP-100,2013-01-31 04:52:00,
2013-01-30 23:57:00,50.3,50.0,29.23,South,180,2.0,9.0,97,0.00,,,0.21,Rainwise IP-100,2013-01-31 04:57:00,